sensor_id;sensor_type;location;lat;lon;timestamp;pressure;altitude;pressure_sealevel;temperature;humidity
30708;BME280;17458;48.958;8.284;2022-11-20T00:02:28;99948.28;;;8.50;74.30
30708;BME280;17458;48.958;8.284;2022-11-20T00:05:12;99960.34;;;8.29;74.59
30708;BME280;17458;48.958;8.284;2022-11-20T00:07:56;99956.06;;;8.14;75.12
30708;BME280;17458;48.958;8.284;2022-11-20T00:10:40;99960.69;;;8.18;74.93
30708;BME280;17458;48.958;8.284;2022-11-20T00:13:25;99956.41;;;8.21;75.41
30708;BME280;17458;48.958;8.284;2022-11-20T00:16:10;99961.88;;;8.40;75.15
30708;BME280;17458;48.958;8.284;2022-11-20T00:18:58;99956.78;;;8.28;75.22
30708;BME280;17458;48.958;8.284;2022-11-20T00:21:42;99950.94;;;8.34;75.00
30708;BME280;17458;48.958;8.284;2022-11-20T00:24:29;99953.75;;;8.21;75.61
30708;BME280;17458;48.958;8.284;2022-11-20T00:27:13;99954.59;;;8.36;75.24
30708;BME280;17458;48.958;8.284;2022-11-20T00:29:57;99952.81;;;8.52;74.99
30708;BME280;17458;48.958;8.284;2022-11-20T00:32:41;99951.66;;;8.47;74.75
30708;BME280;17458;48.958;8.284;2022-11-20T00:35:27;99950.91;;;8.50;74.85
30708;BME280;17458;48.958;8.284;2022-11-20T00:38:11;99957.81;;;8.64;74.39
30708;BME280;17458;48.958;8.284;2022-11-20T00:41:06;99956.66;;;8.59;74.20
30708;BME280;17458;48.958;8.284;2022-11-20T00:43:53;99952.53;;;8.64;74.30
30708;BME280;17458;48.958;8.284;2022-11-20T00:46:37;99962.38;;;8.67;74.32
30708;BME280;17458;48.958;8.284;2022-11-20T00:49:22;99951.09;;;8.53;74.51
30708;BME280;17458;48.958;8.284;2022-11-20T00:52:12;99948.44;;;8.53;75.16
30708;BME280;17458;48.958;8.284;2022-11-20T00:54:56;99955.34;;;8.67;74.53
30708;BME280;17458;48.958;8.284;2022-11-20T00:57:41;99951.47;;;8.61;74.73
30708;BME280;17458;48.958;8.284;2022-11-20T01:00:25;99952.38;;;8.61;74.50
30708;BME280;17458;48.958;8.284;2022-11-20T01:03:13;99947.81;;;8.59;74.38
30708;BME280;17458;48.958;8.284;2022-11-20T01:06:05;99946.66;;;8.70;74.35
30708;BME280;17458;48.958;8.284;2022-11-20T01:08:50;99953.00;;;8.73;74.36
30708;BME280;17458;48.958;8.284;2022-11-20T01:11:40;99943.38;;;8.75;74.35
30708;BME280;17458;48.958;8.284;2022-11-20T01:14:25;99954.81;;;8.74;74.20
30708;BME280;17458;48.958;8.284;2022-11-20T01:17:09;99951.84;;;8.86;73.92
30708;BME280;17458;48.958;8.284;2022-11-20T01:19:53;99948.31;;;8.85;74.18
30708;BME280;17458;48.958;8.284;2022-11-20T01:22:38;99955.91;;;8.96;73.91
30708;BME280;17458;48.958;8.284;2022-11-20T01:25:23;99950.59;;;8.96;74.28
30708;BME280;17458;48.958;8.284;2022-11-20T01:28:06;99948.75;;;9.12;74.10
30708;BME280;17458;48.958;8.284;2022-11-20T01:30:50;99945.50;;;9.18;73.82
30708;BME280;17458;48.958;8.284;2022-11-20T01:33:37;99936.66;;;9.17;74.09
30708;BME280;17458;48.958;8.284;2022-11-20T01:36:27;99941.59;;;9.10;74.74
30708;BME280;17458;48.958;8.284;2022-11-20T01:39:20;99947.50;;;9.22;74.55
30708;BME280;17458;48.958;8.284;2022-11-20T01:42:05;99942.19;;;9.04;75.15
30708;BME280;17458;48.958;8.284;2022-11-20T01:48:47;99927.88;;;9.01;76.99
30708;BME280;17458;48.958;8.284;2022-11-20T01:51:46;99929.94;;;8.88;78.92
30708;BME280;17458;48.958;8.284;2022-11-20T01:54:49;99932.94;;;8.61;81.11
30708;BME280;17458;48.958;8.284;2022-11-20T01:57:35;99928.03;;;8.86;80.46
30708;BME280;17458;48.958;8.284;2022-11-20T02:00:21;99934.16;;;8.67;81.72
30708;BME280;17458;48.958;8.284;2022-11-20T02:03:09;99923.13;;;8.76;82.25
30708;BME280;17458;48.958;8.284;2022-11-20T02:08:52;99934.00;;;9.17;81.00
30708;BME280;17458;48.958;8.284;2022-11-20T02:11:36;99935.00;;;9.02;81.65
30708;BME280;17458;48.958;8.284;2022-11-20T02:14:21;99935.69;;;8.98;82.33
30708;BME280;17458;48.958;8.284;2022-11-20T02:17:09;99930.69;;;9.21;81.50
30708;BME280;17458;48.958;8.284;2022-11-20T02:19:59;99928.41;;;9.66;80.09
30708;BME280;17458;48.958;8.284;2022-11-20T02:23:07;99934.06;;;9.37;81.49
30708;BME280;17458;48.958;8.284;2022-11-20T02:25:54;99939.00;;;9.66;79.68
30708;BME280;17458;48.958;8.284;2022-11-20T02:28:39;99933.13;;;9.54;79.19
30708;BME280;17458;48.958;8.284;2022-11-20T02:31:23;99936.34;;;9.66;79.23
30708;BME280;17458;48.958;8.284;2022-11-20T02:34:07;99935.13;;;9.40;80.20
30708;BME280;17458;48.958;8.284;2022-11-20T02:36:52;99932.97;;;9.51;79.24
30708;BME280;17458;48.958;8.284;2022-11-20T02:39:36;99944.22;;;9.65;78.52
30708;BME280;17458;48.958;8.284;2022-11-20T02:42:20;99940.25;;;9.74;78.13
30708;BME280;17458;48.958;8.284;2022-11-20T02:45:05;99930.41;;;9.72;77.99
30708;BME280;17458;48.958;8.284;2022-11-20T02:47:50;99940.88;;;9.69;78.04
30708;BME280;17458;48.958;8.284;2022-11-20T02:50:37;99932.41;;;9.58;77.95
30708;BME280;17458;48.958;8.284;2022-11-20T02:53:22;99931.16;;;9.50;78.77
30708;BME280;17458;48.958;8.284;2022-11-20T02:56:06;99935.81;;;9.55;78.06
30708;BME280;17458;48.958;8.284;2022-11-20T02:58:50;99929.50;;;9.52;78.46
30708;BME280;17458;48.958;8.284;2022-11-20T03:01:35;99931.06;;;9.66;78.10
30708;BME280;17458;48.958;8.284;2022-11-20T03:04:19;99922.97;;;9.45;78.96
30708;BME280;17458;48.958;8.284;2022-11-20T03:07:04;99926.53;;;9.46;78.92
30708;BME280;17458;48.958;8.284;2022-11-20T03:09:49;99916.59;;;9.40;78.17
30708;BME280;17458;48.958;8.284;2022-11-20T03:12:33;99925.31;;;9.57;77.79
30708;BME280;17458;48.958;8.284;2022-11-20T03:15:17;99918.97;;;9.73;76.53
30708;BME280;17458;48.958;8.284;2022-11-20T03:18:01;99929.41;;;9.50;77.65
30708;BME280;17458;48.958;8.284;2022-11-20T03:20:45;99926.63;;;9.47;77.74
30708;BME280;17458;48.958;8.284;2022-11-20T03:23:30;99927.44;;;9.46;77.88
30708;BME280;17458;48.958;8.284;2022-11-20T03:26:23;99917.06;;;9.70;76.54
30708;BME280;17458;48.958;8.284;2022-11-20T03:29:08;99917.00;;;9.69;76.81
30708;BME280;17458;48.958;8.284;2022-11-20T03:31:52;99918.69;;;9.86;75.79
30708;BME280;17458;48.958;8.284;2022-11-20T03:34:36;99912.38;;;9.82;76.43
30708;BME280;17458;48.958;8.284;2022-11-20T03:37:19;99910.88;;;9.50;76.92
30708;BME280;17458;48.958;8.284;2022-11-20T03:40:04;99921.69;;;9.74;76.35
30708;BME280;17458;48.958;8.284;2022-11-20T03:42:48;99916.66;;;9.61;76.58
30708;BME280;17458;48.958;8.284;2022-11-20T03:45:32;99913.81;;;9.76;76.36
30708;BME280;17458;48.958;8.284;2022-11-20T03:48:16;99915.59;;;9.38;77.13
30708;BME280;17458;48.958;8.284;2022-11-20T03:51:13;99915.75;;;9.60;76.70
30708;BME280;17458;48.958;8.284;2022-11-20T03:53:59;99921.44;;;9.68;76.20
30708;BME280;17458;48.958;8.284;2022-11-20T03:56:44;99911.66;;;9.86;75.10
30708;BME280;17458;48.958;8.284;2022-11-20T03:59:28;99917.53;;;9.79;75.48
30708;BME280;17458;48.958;8.284;2022-11-20T04:02:15;99912.13;;;9.58;76.48
30708;BME280;17458;48.958;8.284;2022-11-20T04:04:59;99916.25;;;9.71;75.74
30708;BME280;17458;48.958;8.284;2022-11-20T04:07:43;99906.34;;;9.67;75.89
30708;BME280;17458;48.958;8.284;2022-11-20T04:10:27;99917.28;;;9.55;75.94
30708;BME280;17458;48.958;8.284;2022-11-20T04:13:11;99917.44;;;9.78;75.76
30708;BME280;17458;48.958;8.284;2022-11-20T04:15:57;99905.16;;;9.99;75.05
30708;BME280;17458;48.958;8.284;2022-11-20T04:18:41;99906.41;;;9.69;75.34
30708;BME280;17458;48.958;8.284;2022-11-20T04:21:26;99914.66;;;9.75;75.77
30708;BME280;17458;48.958;8.284;2022-11-20T04:24:10;99912.91;;;9.75;75.32
30708;BME280;17458;48.958;8.284;2022-11-20T04:26:54;99908.72;;;10.00;74.41
30708;BME280;17458;48.958;8.284;2022-11-20T04:29:38;99907.56;;;9.56;75.93
30708;BME280;17458;48.958;8.284;2022-11-20T04:32:22;99903.97;;;9.73;75.37
30708;BME280;17458;48.958;8.284;2022-11-20T04:35:06;99905.16;;;9.60;75.90
30708;BME280;17458;48.958;8.284;2022-11-20T04:37:51;99903.34;;;9.79;75.56
30708;BME280;17458;48.958;8.284;2022-11-20T04:40:35;99901.88;;;9.66;75.63
30708;BME280;17458;48.958;8.284;2022-11-20T04:43:19;99900.91;;;9.64;76.36
30708;BME280;17458;48.958;8.284;2022-11-20T04:46:03;99899.44;;;9.71;75.63
30708;BME280;17458;48.958;8.284;2022-11-20T04:48:47;99909.91;;;9.87;75.47
30708;BME280;17458;48.958;8.284;2022-11-20T04:51:32;99908.06;;;9.47;76.46
30708;BME280;17458;48.958;8.284;2022-11-20T04:54:16;99900.25;;;9.50;76.42
30708;BME280;17458;48.958;8.284;2022-11-20T04:57:00;99899.66;;;9.75;75.63
30708;BME280;17458;48.958;8.284;2022-11-20T04:59:44;99895.19;;;9.74;75.30
30708;BME280;17458;48.958;8.284;2022-11-20T05:02:27;99912.25;;;10.00;74.89
30708;BME280;17458;48.958;8.284;2022-11-20T05:05:11;99900.97;;;9.85;74.91
30708;BME280;17458;48.958;8.284;2022-11-20T05:07:56;99891.91;;;9.80;75.27
30708;BME280;17458;48.958;8.284;2022-11-20T05:10:41;99901.47;;;9.76;75.33
30708;BME280;17458;48.958;8.284;2022-11-20T05:13:25;99899.97;;;9.83;75.05
30708;BME280;17458;48.958;8.284;2022-11-20T05:16:14;99894.13;;;9.71;75.41
30708;BME280;17458;48.958;8.284;2022-11-20T05:18:58;99901.66;;;9.62;75.61
30708;BME280;17458;48.958;8.284;2022-11-20T05:21:42;99888.34;;;9.60;75.67
30708;BME280;17458;48.958;8.284;2022-11-20T05:24:27;99892.50;;;9.55;75.33
30708;BME280;17458;48.958;8.284;2022-11-20T05:27:10;99895.94;;;9.52;75.88
30708;BME280;17458;48.958;8.284;2022-11-20T05:29:54;99890.22;;;9.63;75.54
30708;BME280;17458;48.958;8.284;2022-11-20T05:32:38;99892.19;;;9.67;74.55
30708;BME280;17458;48.958;8.284;2022-11-20T05:35:22;99887.22;;;9.36;76.39
30708;BME280;17458;48.958;8.284;2022-11-20T05:38:06;99884.91;;;9.43;76.08
30708;BME280;17458;48.958;8.284;2022-11-20T05:40:51;99895.41;;;9.42;76.03
30708;BME280;17458;48.958;8.284;2022-11-20T05:43:36;99879.06;;;9.50;75.45
30708;BME280;17458;48.958;8.284;2022-11-20T05:46:21;99885.72;;;9.42;75.95
30708;BME280;17458;48.958;8.284;2022-11-20T05:49:05;99883.81;;;9.20;76.12
30708;BME280;17458;48.958;8.284;2022-11-20T05:51:49;99886.97;;;9.31;76.30
30708;BME280;17458;48.958;8.284;2022-11-20T05:54:33;99888.53;;;9.45;75.75
30708;BME280;17458;48.958;8.284;2022-11-20T05:57:17;99877.59;;;9.76;74.64
30708;BME280;17458;48.958;8.284;2022-11-20T06:00:01;99883.53;;;9.51;75.23
30708;BME280;17458;48.958;8.284;2022-11-20T06:02:48;99882.41;;;9.46;75.01
30708;BME280;17458;48.958;8.284;2022-11-20T06:05:33;99887.56;;;9.63;75.10
30708;BME280;17458;48.958;8.284;2022-11-20T06:08:17;99885.19;;;9.49;75.18
30708;BME280;17458;48.958;8.284;2022-11-20T06:11:09;99880.44;;;9.42;76.19
30708;BME280;17458;48.958;8.284;2022-11-20T06:13:53;99886.72;;;9.25;76.48
30708;BME280;17458;48.958;8.284;2022-11-20T06:16:37;99887.38;;;9.21;76.80
30708;BME280;17458;48.958;8.284;2022-11-20T06:19:21;99887.47;;;9.42;75.53
30708;BME280;17458;48.958;8.284;2022-11-20T06:22:05;99889.78;;;9.34;76.75
30708;BME280;17458;48.958;8.284;2022-11-20T06:24:49;99886.63;;;9.43;75.99
30708;BME280;17458;48.958;8.284;2022-11-20T06:27:33;99892.34;;;9.33;75.76
30708;BME280;17458;48.958;8.284;2022-11-20T06:30:17;99896.47;;;9.26;76.91
30708;BME280;17458;48.958;8.284;2022-11-20T06:33:01;99890.63;;;9.33;76.24
30708;BME280;17458;48.958;8.284;2022-11-20T06:35:45;99885.00;;;9.64;75.63
30708;BME280;17458;48.958;8.284;2022-11-20T06:38:29;99886.72;;;9.44;75.68
30708;BME280;17458;48.958;8.284;2022-11-20T06:41:15;99895.31;;;9.58;76.01
30708;BME280;17458;48.958;8.284;2022-11-20T06:43:59;99893.81;;;9.26;76.67
30708;BME280;17458;48.958;8.284;2022-11-20T06:46:43;99900.88;;;9.45;76.58
30708;BME280;17458;48.958;8.284;2022-11-20T06:49:27;99896.16;;;9.20;77.45
30708;BME280;17458;48.958;8.284;2022-11-20T06:52:11;99902.72;;;9.28;77.29
30708;BME280;17458;48.958;8.284;2022-11-20T06:54:55;99908.72;;;9.24;77.14
30708;BME280;17458;48.958;8.284;2022-11-20T06:57:39;99910.16;;;9.35;77.14
30708;BME280;17458;48.958;8.284;2022-11-20T07:00:23;99903.19;;;9.56;76.16
30708;BME280;17458;48.958;8.284;2022-11-20T07:03:09;99912.28;;;9.62;75.75
30708;BME280;17458;48.958;8.284;2022-11-20T07:05:55;99912.38;;;9.45;76.88
30708;BME280;17458;48.958;8.284;2022-11-20T07:08:39;99918.66;;;9.47;77.02
30708;BME280;17458;48.958;8.284;2022-11-20T07:11:23;99919.00;;;9.55;76.33
30708;BME280;17458;48.958;8.284;2022-11-20T07:14:07;99920.41;;;9.47;77.16
30708;BME280;17458;48.958;8.284;2022-11-20T07:16:51;99930.28;;;9.32;77.37
30708;BME280;17458;48.958;8.284;2022-11-20T07:19:35;99916.66;;;9.61;77.05
30708;BME280;17458;48.958;8.284;2022-11-20T07:22:19;99917.09;;;9.33;77.90
30708;BME280;17458;48.958;8.284;2022-11-20T07:25:05;99926.19;;;9.38;77.58
30708;BME280;17458;48.958;8.284;2022-11-20T07:27:49;99930.25;;;9.69;76.98
30708;BME280;17458;48.958;8.284;2022-11-20T07:30:33;99936.13;;;9.62;76.92
30708;BME280;17458;48.958;8.284;2022-11-20T07:33:18;99933.31;;;9.58;76.85
30708;BME280;17458;48.958;8.284;2022-11-20T07:36:02;99938.28;;;9.70;76.74
30708;BME280;17458;48.958;8.284;2022-11-20T07:38:46;99930.72;;;9.41;77.61
30708;BME280;17458;48.958;8.284;2022-11-20T07:41:30;99933.41;;;9.60;77.32
30708;BME280;17458;48.958;8.284;2022-11-20T07:44:15;99935.16;;;9.59;78.31
30708;BME280;17458;48.958;8.284;2022-11-20T07:46:59;99944.22;;;9.65;78.29
30708;BME280;17458;48.958;8.284;2022-11-20T07:49:43;99938.53;;;9.38;78.72
30708;BME280;17458;48.958;8.284;2022-11-20T07:52:26;99947.94;;;9.68;78.20
30708;BME280;17458;48.958;8.284;2022-11-20T07:55:11;99947.59;;;9.43;79.49
30708;BME280;17458;48.958;8.284;2022-11-20T07:57:56;99946.72;;;9.62;79.21
30708;BME280;17458;48.958;8.284;2022-11-20T08:00:41;99943.44;;;9.30;80.04
30708;BME280;17458;48.958;8.284;2022-11-20T08:03:24;99945.09;;;9.46;80.44
30708;BME280;17458;48.958;8.284;2022-11-20T08:06:08;99948.97;;;9.35;82.35
30708;BME280;17458;48.958;8.284;2022-11-20T08:08:53;99948.41;;;9.59;81.48
30708;BME280;17458;48.958;8.284;2022-11-20T08:11:37;99954.94;;;9.48;81.89
30708;BME280;17458;48.958;8.284;2022-11-20T08:14:39;99956.69;;;9.30;83.04
30708;BME280;17458;48.958;8.284;2022-11-20T08:17:23;99961.47;;;9.37;82.70
30708;BME280;17458;48.958;8.284;2022-11-20T08:20:07;99973.41;;;9.47;81.66
30708;BME280;17458;48.958;8.284;2022-11-20T08:22:52;99972.81;;;9.52;81.96
30708;BME280;17458;48.958;8.284;2022-11-20T08:25:37;99971.84;;;9.50;82.81
30708;BME280;17458;48.958;8.284;2022-11-20T08:28:21;99970.91;;;9.50;82.14
30708;BME280;17458;48.958;8.284;2022-11-20T08:31:05;99972.59;;;9.48;82.11
30708;BME280;17458;48.958;8.284;2022-11-20T08:33:50;99979.56;;;9.28;82.92
30708;BME280;17458;48.958;8.284;2022-11-20T08:36:34;99983.34;;;9.33;83.35
30708;BME280;17458;48.958;8.284;2022-11-20T08:39:18;99987.41;;;9.44;82.88
30708;BME280;17458;48.958;8.284;2022-11-20T08:42:06;99984.28;;;9.71;82.31
30708;BME280;17458;48.958;8.284;2022-11-20T08:44:50;99989.66;;;9.72;81.45
30708;BME280;17458;48.958;8.284;2022-11-20T08:47:34;99984.09;;;9.85;80.34
30708;BME280;17458;48.958;8.284;2022-11-20T08:50:18;99981.88;;;10.14;79.75
30708;BME280;17458;48.958;8.284;2022-11-20T08:53:06;99986.84;;;10.25;79.59
30708;BME280;17458;48.958;8.284;2022-11-20T08:55:50;99991.66;;;9.95;79.35
30708;BME280;17458;48.958;8.284;2022-11-20T08:58:34;99996.16;;;10.35;77.97
30708;BME280;17458;48.958;8.284;2022-11-20T09:01:20;99998.50;;;10.10;78.75
30708;BME280;17458;48.958;8.284;2022-11-20T09:04:04;99994.25;;;10.33;78.37
30708;BME280;17458;48.958;8.284;2022-11-20T09:06:48;100000.53;;;9.96;80.12
30708;BME280;17458;48.958;8.284;2022-11-20T09:09:34;99999.88;;;9.82;80.44
30708;BME280;17458;48.958;8.284;2022-11-20T09:12:18;100009.00;;;9.89;81.00
30708;BME280;17458;48.958;8.284;2022-11-20T09:15:02;100008.38;;;9.75;81.95
30708;BME280;17458;48.958;8.284;2022-11-20T09:17:51;100014.88;;;9.82;81.99
30708;BME280;17458;48.958;8.284;2022-11-20T09:20:35;100013.00;;;9.79;82.40
30708;BME280;17458;48.958;8.284;2022-11-20T09:23:19;100023.59;;;9.79;82.70
30708;BME280;17458;48.958;8.284;2022-11-20T09:26:05;100013.06;;;9.81;82.83
30708;BME280;17458;48.958;8.284;2022-11-20T09:28:50;100018.22;;;9.78;82.77
30708;BME280;17458;48.958;8.284;2022-11-20T09:31:34;100021.47;;;9.72;82.65
30708;BME280;17458;48.958;8.284;2022-11-20T09:34:17;100022.78;;;10.00;82.16
30708;BME280;17458;48.958;8.284;2022-11-20T09:37:04;100020.31;;;9.85;82.64
30708;BME280;17458;48.958;8.284;2022-11-20T09:39:48;100019.53;;;9.87;83.13
30708;BME280;17458;48.958;8.284;2022-11-20T09:42:46;100027.72;;;10.11;82.40
30708;BME280;17458;48.958;8.284;2022-11-20T09:48:59;100026.72;;;10.08;82.02
30708;BME280;17458;48.958;8.284;2022-11-20T09:52:01;100033.22;;;9.96;82.45
30708;BME280;17458;48.958;8.284;2022-11-20T09:54:50;100038.84;;;10.03;83.10
30708;BME280;17458;48.958;8.284;2022-11-20T09:57:38;100028.34;;;9.69;83.60
30708;BME280;17458;48.958;8.284;2022-11-20T10:00:24;100035.00;;;9.96;82.92
30708;BME280;17458;48.958;8.284;2022-11-20T10:03:16;100031.38;;;10.13;83.13
30708;BME280;17458;48.958;8.284;2022-11-20T10:06:05;100037.44;;;9.74;83.49
30708;BME280;17458;48.958;8.284;2022-11-20T10:15:33;100027.16;;;10.36;81.62
30708;BME280;17458;48.958;8.284;2022-11-20T10:21:58;100018.34;;;10.56;80.92
30708;BME280;17458;48.958;8.284;2022-11-20T10:25:18;100022.34;;;10.27;80.45
30708;BME280;17458;48.958;8.284;2022-11-20T10:28:24;100016.59;;;10.57;80.62
30708;BME280;17458;48.958;8.284;2022-11-20T10:31:25;100010.88;;;10.48;80.47
30708;BME280;17458;48.958;8.284;2022-11-20T10:37:24;99997.72;;;10.91;79.33
30708;BME280;17458;48.958;8.284;2022-11-20T10:46:03;99996.81;;;10.90;77.05
30708;BME280;17458;48.958;8.284;2022-11-20T10:48:49;99978.81;;;11.04;77.45
30708;BME280;17458;48.958;8.284;2022-11-20T10:52:04;99986.31;;;11.35;76.39
30708;BME280;17458;48.958;8.284;2022-11-20T11:01:24;99985.09;;;11.49;73.28
30708;BME280;17458;48.958;8.284;2022-11-20T11:07:37;99975.88;;;11.62;72.28
30708;BME280;17458;48.958;8.284;2022-11-20T11:11:00;99965.38;;;11.66;70.84
30708;BME280;17458;48.958;8.284;2022-11-20T11:13:45;99973.25;;;11.41;70.64
30708;BME280;17458;48.958;8.284;2022-11-20T11:16:29;99956.03;;;11.31;69.36
30708;BME280;17458;48.958;8.284;2022-11-20T11:19:13;99953.25;;;11.73;69.52
30708;BME280;17458;48.958;8.284;2022-11-20T11:21:58;99942.78;;;11.55;69.46
30708;BME280;17458;48.958;8.284;2022-11-20T11:24:52;99938.78;;;11.66;69.94
30708;BME280;17458;48.958;8.284;2022-11-20T11:27:46;99940.44;;;11.63;68.74
30708;BME280;17458;48.958;8.284;2022-11-20T11:30:41;99934.00;;;12.02;67.82
30708;BME280;17458;48.958;8.284;2022-11-20T11:33:32;99930.19;;;11.96;67.66
30708;BME280;17458;48.958;8.284;2022-11-20T11:36:20;99917.47;;;11.87;67.25
30708;BME280;17458;48.958;8.284;2022-11-20T11:39:14;99918.94;;;12.52;65.82
30708;BME280;17458;48.958;8.284;2022-11-20T11:42:00;99922.31;;;12.23;66.16
30708;BME280;17458;48.958;8.284;2022-11-20T11:44:46;99915.13;;;12.44;65.36
30708;BME280;17458;48.958;8.284;2022-11-20T11:47:50;99908.03;;;12.45;65.07
30708;BME280;17458;48.958;8.284;2022-11-20T11:50:36;99912.19;;;12.62;63.21
30708;BME280;17458;48.958;8.284;2022-11-20T11:53:21;99894.78;;;12.21;63.03
30708;BME280;17458;48.958;8.284;2022-11-20T11:56:11;99909.53;;;11.89;62.25
30708;BME280;17458;48.958;8.284;2022-11-20T11:59:01;99898.03;;;12.14;62.65
30708;BME280;17458;48.958;8.284;2022-11-20T12:01:55;99906.09;;;12.66;61.18
30708;BME280;17458;48.958;8.284;2022-11-20T12:04:50;99895.75;;;12.50;59.74
30708;BME280;17458;48.958;8.284;2022-11-20T12:08:04;99905.25;;;12.16;61.20
30708;BME280;17458;48.958;8.284;2022-11-20T12:14:02;99907.16;;;12.20;60.09
30708;BME280;17458;48.958;8.284;2022-11-20T12:16:48;99905.44;;;12.46;59.61
30708;BME280;17458;48.958;8.284;2022-11-20T12:19:34;99903.72;;;12.48;59.63
30708;BME280;17458;48.958;8.284;2022-11-20T12:22:36;99903.13;;;12.31;60.40
30708;BME280;17458;48.958;8.284;2022-11-20T12:25:30;99911.59;;;12.20;59.29
30708;BME280;17458;48.958;8.284;2022-11-20T12:28:47;99904.41;;;12.42;57.61
30708;BME280;17458;48.958;8.284;2022-11-20T12:32:05;99907.44;;;12.28;59.19
30708;BME280;17458;48.958;8.284;2022-11-20T12:35:04;99905.91;;;12.34;57.85
30708;BME280;17458;48.958;8.284;2022-11-20T12:41:05;99889.59;;;12.76;55.41
30708;BME280;17458;48.958;8.284;2022-11-20T12:50:31;99892.22;;;13.01;54.58
30708;BME280;17458;48.958;8.284;2022-11-20T12:56:40;99885.34;;;12.56;55.66
30708;BME280;17458;48.958;8.284;2022-11-20T13:08:55;99867.84;;;12.64;53.53
30708;BME280;17458;48.958;8.284;2022-11-20T13:12:01;99883.59;;;12.83;52.99
30708;BME280;17458;48.958;8.284;2022-11-20T13:15:16;99859.28;;;12.99;52.05
30708;BME280;17458;48.958;8.284;2022-11-20T13:18:04;99861.31;;;12.81;52.12
30708;BME280;17458;48.958;8.284;2022-11-20T13:20:52;99854.84;;;13.00;51.38
30708;BME280;17458;48.958;8.284;2022-11-20T13:23:36;99857.22;;;12.91;52.91
30708;BME280;17458;48.958;8.284;2022-11-20T13:26:22;99859.56;;;12.82;53.40
30708;BME280;17458;48.958;8.284;2022-11-20T13:29:15;99863.94;;;12.79;53.97
30708;BME280;17458;48.958;8.284;2022-11-20T13:32:14;99849.50;;;12.21;52.93
30708;BME280;17458;48.958;8.284;2022-11-20T13:35:04;99858.44;;;12.73;52.74
30708;BME280;17458;48.958;8.284;2022-11-20T13:38:08;99860.13;;;12.98;52.05
30708;BME280;17458;48.958;8.284;2022-11-20T13:40:56;99865.50;;;13.00;52.17
30708;BME280;17458;48.958;8.284;2022-11-20T13:43:41;99838.94;;;12.24;53.60
30708;BME280;17458;48.958;8.284;2022-11-20T13:46:39;99839.28;;;12.33;52.80
30708;BME280;17458;48.958;8.284;2022-11-20T13:49:38;99837.53;;;12.33;52.90
30708;BME280;17458;48.958;8.284;2022-11-20T13:52:35;99834.09;;;12.37;51.88
30708;BME280;17458;48.958;8.284;2022-11-20T14:01:10;99827.31;;;12.20;53.42
30708;BME280;17458;48.958;8.284;2022-11-20T14:03:55;99823.88;;;11.99;53.61
30708;BME280;17458;48.958;8.284;2022-11-20T14:06:42;99824.34;;;11.63;54.19
30708;BME280;17458;48.958;8.284;2022-11-20T14:09:30;99819.03;;;11.87;55.01
30708;BME280;17458;48.958;8.284;2022-11-20T14:12:16;99815.28;;;12.06;55.33
30708;BME280;17458;48.958;8.284;2022-11-20T14:15:02;99807.06;;;12.00;54.66
30708;BME280;17458;48.958;8.284;2022-11-20T14:17:46;99814.59;;;11.88;55.27
30708;BME280;17458;48.958;8.284;2022-11-20T14:20:30;99815.84;;;11.97;54.84
30708;BME280;17458;48.958;8.284;2022-11-20T14:23:27;99795.56;;;11.76;54.87
30708;BME280;17458;48.958;8.284;2022-11-20T14:26:17;99795.69;;;11.80;54.35
30708;BME280;17458;48.958;8.284;2022-11-20T14:29:04;99791.84;;;11.48;54.56
30708;BME280;17458;48.958;8.284;2022-11-20T14:31:51;99791.44;;;11.61;55.22
30708;BME280;17458;48.958;8.284;2022-11-20T14:34:39;99788.09;;;11.43;55.04
30708;BME280;17458;48.958;8.284;2022-11-20T14:37:26;99787.59;;;11.53;54.95
30708;BME280;17458;48.958;8.284;2022-11-20T14:40:28;99781.88;;;11.19;55.83
30708;BME280;17458;48.958;8.284;2022-11-20T14:43:27;99782.13;;;11.49;55.22
30708;BME280;17458;48.958;8.284;2022-11-20T14:46:12;99792.66;;;11.23;55.86
30708;BME280;17458;48.958;8.284;2022-11-20T14:49:01;99787.41;;;11.25;55.90
30708;BME280;17458;48.958;8.284;2022-11-20T14:51:58;99786.50;;;11.24;55.52
30708;BME280;17458;48.958;8.284;2022-11-20T14:54:47;99776.81;;;11.49;55.60
30708;BME280;17458;48.958;8.284;2022-11-20T14:57:34;99766.06;;;11.23;56.39
30708;BME280;17458;48.958;8.284;2022-11-20T15:00:20;99772.88;;;11.39;55.99
30708;BME280;17458;48.958;8.284;2022-11-20T15:03:15;99767.88;;;11.24;56.30
30708;BME280;17458;48.958;8.284;2022-11-20T15:05:59;99767.22;;;11.06;56.09
30708;BME280;17458;48.958;8.284;2022-11-20T15:08:51;99762.69;;;11.51;55.88
30708;BME280;17458;48.958;8.284;2022-11-20T15:11:35;99746.41;;;11.18;56.15
30708;BME280;17458;48.958;8.284;2022-11-20T15:14:19;99751.78;;;11.44;55.61
30708;BME280;17458;48.958;8.284;2022-11-20T15:17:04;99760.22;;;11.56;55.45
30708;BME280;17458;48.958;8.284;2022-11-20T15:19:48;99753.19;;;11.58;56.22
30708;BME280;17458;48.958;8.284;2022-11-20T15:22:33;99758.41;;;11.31;56.16
30708;BME280;17458;48.958;8.284;2022-11-20T15:25:18;99752.25;;;11.32;56.68
30708;BME280;17458;48.958;8.284;2022-11-20T15:28:01;99752.25;;;11.32;56.33
30708;BME280;17458;48.958;8.284;2022-11-20T15:30:49;99748.94;;;11.39;55.94
30708;BME280;17458;48.958;8.284;2022-11-20T15:33:34;99750.75;;;10.92;56.83
30708;BME280;17458;48.958;8.284;2022-11-20T15:36:18;99760.09;;;11.05;56.60
30708;BME280;17458;48.958;8.284;2022-11-20T15:39:02;99756.66;;;11.08;56.75
30708;BME280;17458;48.958;8.284;2022-11-20T15:41:46;99756.97;;;11.41;56.64
30708;BME280;17458;48.958;8.284;2022-11-20T15:44:30;99748.75;;;11.33;56.65
30708;BME280;17458;48.958;8.284;2022-11-20T15:47:14;99741.81;;;11.38;56.60
30708;BME280;17458;48.958;8.284;2022-11-20T15:49:58;99736.81;;;11.22;56.38
30708;BME280;17458;48.958;8.284;2022-11-20T15:52:42;99736.97;;;11.26;56.55
30708;BME280;17458;48.958;8.284;2022-11-20T15:56:11;99740.81;;;11.34;56.52
30708;BME280;17458;48.958;8.284;2022-11-20T15:58:55;99726.09;;;11.44;55.95
30708;BME280;17458;48.958;8.284;2022-11-20T16:01:39;99733.34;;;11.24;56.73
30708;BME280;17458;48.958;8.284;2022-11-20T16:04:23;99730.91;;;11.07;56.96